メインページ
METAR-TAF:

METAR-TAF

空港 :

バーレーン, バーレーン

バーレーン国際空港

緯度: 26-16N, 経度: 050-39E, 海抜: 2m

現時点の気象観測

当レポートは23分前の13:00(UTC)に作成
の風 6kt、北/北西から北/北東の間で変化する
気温 37°C
湿度 33%
気圧 1006 hPa
視程10km以上
1,500メートル以下は雲なし、積乱雲なし

METAR: OBBI 251300Z 36006KT 330V030 CAVOK 37/18 Q1006 NOSIG

時間: 16:23 (13:23 UTC)

予報

当レポートは2時間23分前の11:00(UTC)に作成
予報は25日の 12時(UTC)から 26日の 18時(UTC)まで有効
北/北東の風 10kt
視程10km以上
1,500メートル以下は雲なし、積乱雲なし
25日の 16時(UTC)から 25日の 18時(UTC)まで徐々に
変向風 5kt
26日の 08時(UTC)から 26日の 10時(UTC)まで徐々に
の風 10kt

TAF: OBBI 251100Z 2512/2618 03010KT CAVOK BECMG 2516/2518 VRB05KT BECMG 2608/2610 01010KT

4,000以上の空港の気象観測と天気予報(METAR報とTAF報)

利用可能な観測所は地図上に黄色い丸と赤い丸で示す。

丸の上にカーソルを重ねると観測所名を参照できる。

次にクリックすると気象観測と天気予報を参照できる。

マップの切り替え:黒色「×」印の緑ボタンをクリックして拡大、「-」印の緑ボタンをクリックして縮小、緑色の三角印をクリックして隣りの地図に切り替え


METAR-TAF: